« Back
NWS Peachtree City, Ga » Text Product » AHN Terminal Aerodrome Forecast


Printer-friendly Version
Current Version              Previous Versions:   1  2  3  4  5  6  7  8  9  

Terminal Aerodrome Forecast

129
FTUS42 KFFC 232300
TAFAHN
TAF
KAHN 232331Z 2400/2424 28004KT P6SM SCT040 SCT080
     FM240800 24004KT 5SM BR SCT025
     FM241500 25008KT P6SM BKN030
     FM241700 27009G15KT 6SM -SHRA BKN035 PROB30 2417/2422 5SM TSRA
      BR BKN025CB
     FM242200 30007KT P6SM BKN035=

USA.gov is the U.S. government's official web portal to all federal, state and local government web resources and services.